Time;durP1;ratioP1;P1;durP2;ratioP2;P2;SDS_P1;SDS_P2;PMS_P1;PMS_P2;Temp;Humidity;BMP_temperature;BMP_pressure;BME280_temperature;BME280_humidity;BME280_pressure;Samples;Min_cycle;Max_cycle;Signal;HPM_P1;HPM_P2
2021/03/01 00:01:12;;;;;;;5.03;2.15;;;0.50;88.30;;;;;;4979990;28;20048;-82
2021/03/01 00:03:40;;;;;;;6.85;2.30;;;0.40;88.10;;;;;;5002298;28;20055;-83
2021/03/01 00:06:14;;;;;;;4.00;1.30;;;0.30;88.40;;;;;;4964294;28;20441;-81
2021/03/01 00:08:42;;;;;;;5.63;2.42;;;0.40;88.60;;;;;;4963533;28;20061;-81
2021/03/01 00:11:11;;;;;;;5.28;1.73;;;0.30;88.30;;;;;;4986764;28;20078;-82
2021/03/01 00:13:38;;;;;;;6.63;2.03;;;0.40;88.40;;;;;;4964426;28;20338;-81
2021/03/01 00:16:05;;;;;;;4.00;1.63;;;0.40;88.40;;;;;;4960985;28;20100;-83
2021/03/01 00:18:32;;;;;;;4.32;1.52;;;0.30;88.20;;;;;;4955070;28;20295;-82
2021/03/01 00:20:59;;;;;;;4.85;1.90;;;0.20;88.80;;;;;;4956186;28;20051;-80
2021/03/01 00:23:26;;;;;;;6.32;2.75;;;0.20;88.80;;;;;;4959165;28;20058;-81
2021/03/01 00:25:54;;;;;;;3.35;1.30;;;0.20;88.90;;;;;;4962790;28;20410;-82
2021/03/01 00:28:21;;;;;;;8.68;2.20;;;0.20;88.80;;;;;;4957572;28;20062;-84
2021/03/01 00:30:48;;;;;;;5.45;2.03;;;0.20;88.90;;;;;;4964348;28;20281;-81
2021/03/01 00:33:16;;;;;;;5.82;2.70;;;0.20;89.10;;;;;;4958979;28;20372;-86
2021/03/01 00:35:43;;;;;;;5.80;1.75;;;0.10;89.10;;;;;;4972502;28;20242;-81
2021/03/01 00:38:10;;;;;;;5.25;1.70;;;0.10;89.10;;;;;;4959084;28;20061;-83
2021/03/01 00:40:36;;;;;;;5.18;2.13;;;0.10;89.50;;;;;;4952002;28;20066;-82
2021/03/01 00:43:05;;;;;;;6.80;2.25;;;0.10;89.30;;;;;;4964813;28;20059;-83
2021/03/01 00:45:32;;;;;;;3.90;1.75;;;0.10;89.30;;;;;;4955584;28;20059;-80
2021/03/01 00:47:59;;;;;;;10.60;2.30;;;0.10;89.50;;;;;;4959840;28;21120;-80
2021/03/01 00:50:28;;;;;;;6.88;2.95;;;0.00;89.80;;;;;;4982461;28;20267;-84
2021/03/01 00:52:55;;;;;;;5.45;3.10;;;0.00;89.90;;;;;;4956149;28;20581;-82
2021/03/01 00:55:23;;;;;;;5.13;2.25;;;0.00;90.00;;;;;;4974614;28;20355;-83
2021/03/01 00:57:51;;;;;;;3.72;1.90;;;0.00;89.90;;;;;;4958799;28;20055;-86
2021/03/01 01:00:22;;;;;;;3.53;1.92;;;0.00;90.00;;;;;;4942047;28;20358;-84
2021/03/01 01:03:00;;;;;;;4.80;1.98;;;0.00;90.10;;;;;;4960503;28;20039;-81
2021/03/01 01:05:43;;;;;;;6.03;1.75;;;0.00;90.10;;;;;;4938578;28;20066;-85
2021/03/01 01:08:11;;;;;;;5.80;1.65;;;0.00;90.00;;;;;;4972749;28;20330;-84
2021/03/01 01:10:38;;;;;;;5.40;2.22;;;-3276.70;90.00;;;;;;4962911;28;20059;-82
2021/03/01 01:13:06;;;;;;;3.88;1.95;;;-3276.70;90.30;;;;;;4950714;28;20043;-83
2021/03/01 01:15:34;;;;;;;3.25;1.70;;;-3276.70;90.40;;;;;;4954933;28;20073;-81
2021/03/01 01:18:02;;;;;;;3.78;1.60;;;-3276.70;90.20;;;;;;4957921;28;20055;-84
2021/03/01 01:20:29;;;;;;;5.13;2.00;;;-3276.70;90.10;;;;;;4987486;28;20075;-84
2021/03/01 01:22:56;;;;;;;5.18;1.67;;;-3276.70;89.90;;;;;;4998349;28;20298;-82
2021/03/01 01:25:23;;;;;;;4.05;1.73;;;-3276.60;90.00;;;;;;4965350;28;20057;-83
2021/03/01 01:27:50;;;;;;;5.43;2.33;;;-3276.70;90.00;;;;;;4952421;28;20055;-82
2021/03/01 01:30:20;;;;;;;8.25;2.53;;;-3276.60;89.90;;;;;;4949025;28;21004;-87
2021/03/01 01:32:49;;;;;;;4.73;2.03;;;-3276.60;90.00;;;;;;4957339;28;20046;-84
2021/03/01 01:35:19;;;;;;;3.70;1.58;;;-3276.60;90.00;;;;;;4991117;28;20344;-82
2021/03/01 01:37:46;;;;;;;5.13;1.67;;;-3276.60;90.10;;;;;;5040382;28;20347;-83
2021/03/01 01:40:15;;;;;;;6.03;2.28;;;-3276.60;90.10;;;;;;4956143;28;20039;-84
2021/03/01 01:42:44;;;;;;;6.00;1.75;;;-3276.50;90.10;;;;;;4964175;28;20047;-83
2021/03/01 01:45:13;;;;;;;3.72;1.60;;;-3276.60;90.30;;;;;;4957476;28;20269;-84
2021/03/01 01:47:44;;;;;;;4.20;1.88;;;-3276.50;90.20;;;;;;4951089;28;20290;-82
2021/03/01 01:50:13;;;;;;;;;;;-3276.50;90.20;;;;;;4960695;28;20593;-83
2021/03/01 01:52:40;;;;;;;6.43;2.20;;;-3276.50;90.40;;;;;;4956120;28;19926;-81
2021/03/01 01:55:09;;;;;;;3.70;1.50;;;-3276.50;90.20;;;;;;4959254;28;20589;-85
2021/03/01 01:57:37;;;;;;;6.18;2.08;;;-3276.40;90.30;;;;;;4971586;28;20063;-84
2021/03/01 02:00:14;;;;;;;4.57;2.13;;;-3276.40;90.70;;;;;;4958070;28;20047;-84
2021/03/01 02:02:42;;;;;;;7.40;2.70;;;-3276.50;90.50;;;;;;4957427;28;20047;-82
2021/03/01 02:05:13;;;;;;;3.63;1.60;;;-3276.50;90.50;;;;;;4959180;28;20085;-86
2021/03/01 02:07:51;;;;;;;7.32;2.03;;;-3276.50;90.60;;;;;;4955939;28;20050;-83
2021/03/01 02:10:27;;;;;;;5.57;2.38;;;-3276.50;90.50;;;;;;4977478;28;20059;-85
2021/03/01 02:12:59;;;;;;;8.13;1.50;;;-3276.50;90.30;;;;;;4951127;28;20070;-83
2021/03/01 02:15:37;;;;;;;5.55;2.05;;;-3276.50;90.50;;;;;;4979067;28;20047;-79
2021/03/01 02:18:04;;;;;;;4.82;2.38;;;-3276.50;90.20;;;;;;4947021;28;20065;-81
2021/03/01 02:20:32;;;;;;;5.55;2.20;;;-3276.50;90.40;;;;;;4962515;28;20346;-84
2021/03/01 02:23:00;;;;;;;7.07;2.05;;;-3276.40;90.10;;;;;;4985183;28;20059;-82
2021/03/01 02:25:32;;;;;;;4.70;2.00;;;-3276.50;90.20;;;;;;4988949;28;20043;-80
2021/03/01 02:28:08;;;;;;;4.88;2.10;;;-3276.40;89.90;;;;;;4947440;28;20098;-81
2021/03/01 02:30:38;;;;;;;4.18;1.70;;;-3276.40;90.10;;;;;;5039568;28;20055;-82
2021/03/01 02:33:13;;;;;;;4.15;1.48;;;-3276.30;90.30;;;;;;4973083;28;20100;-84
2021/03/01 02:35:46;;;;;;;7.88;1.92;;;-3276.30;90.60;;;;;;4994997;28;20051;-80
2021/03/01 02:38:15;;;;;;;5.40;2.03;;;-3276.30;90.80;;;;;;4956546;28;20062;-79
2021/03/01 02:40:43;;;;;;;7.57;2.60;;;-3276.30;90.70;;;;;;4951460;28;20058;-80
2021/03/01 02:43:11;;;;;;;2.60;1.55;;;-3276.30;90.90;;;;;;4938923;28;20078;-79
2021/03/01 02:45:42;;;;;;;2.22;0.90;;;-3276.30;90.90;;;;;;4966820;28;20231;-82
2021/03/01 02:48:13;;;;;;;5.30;2.40;;;-3276.30;91.10;;;;;;4959421;28;20120;-81
2021/03/01 02:50:43;;;;;;;3.75;1.52;;;-3276.30;91.10;;;;;;4960857;28;20062;-80
2021/03/01 02:53:11;;;;;;;3.70;1.58;;;-3276.30;90.80;;;;;;4961302;28;20058;-81
2021/03/01 02:55:40;;;;;;;4.90;1.88;;;-3276.30;90.80;;;;;;5030876;28;20050;-79
2021/03/01 02:58:08;;;;;;;5.32;1.60;;;-3276.40;91.00;;;;;;4956851;28;20074;-81
2021/03/01 03:00:36;;;;;;;3.70;1.50;;;-3276.40;91.00;;;;;;4975228;28;20055;-81
2021/03/01 03:03:04;;;;;;;6.13;1.73;;;-3276.50;90.90;;;;;;4959922;28;20284;-81
2021/03/01 03:05:32;;;;;;;9.45;3.25;;;-3276.40;90.60;;;;;;4961755;28;20051;-80
2021/03/01 03:08:04;;;;;;;5.50;2.33;;;-3276.50;90.60;;;;;;4981107;28;20058;-79
2021/03/01 03:10:32;;;;;;;7.00;3.28;;;-3276.50;90.40;;;;;;4944998;28;20066;-79
2021/03/01 03:13:01;;;;;;;5.93;1.67;;;-3276.60;90.20;;;;;;4963262;28;20043;-82
2021/03/01 03:15:30;;;;;;;4.88;2.40;;;-3276.60;89.90;;;;;;4944976;28;20058;-82
2021/03/01 03:17:59;;;;;;;3.85;1.45;;;-3276.60;90.10;;;;;;4942330;28;20404;-82
2021/03/01 03:20:26;;;;;;;1.92;1.10;;;-3276.50;90.20;;;;;;4958886;28;20055;-83
2021/03/01 03:22:55;;;;;;;6.00;1.58;;;-3276.50;90.50;;;;;;4997970;28;20322;-79
2021/03/01 03:25:22;;;;;;;3.25;1.45;;;-3276.50;90.50;;;;;;4970303;28;20114;-83
2021/03/01 03:27:50;;;;;;;3.25;1.55;;;-3276.40;90.30;;;;;;4941994;28;20121;-80
2021/03/01 03:30:21;;;;;;;4.20;1.50;;;-3276.30;90.50;;;;;;4974423;28;20242;-83
2021/03/01 03:32:49;;;;;;;2.97;1.50;;;-3276.30;90.60;;;;;;4957890;28;20114;-83
2021/03/01 03:35:18;;;;;;;4.95;1.00;;;-3276.30;90.60;;;;;;4960382;28;20093;-81
2021/03/01 03:37:49;;;;;;;4.40;1.20;;;-3276.20;90.90;;;;;;4962928;28;20043;-83
2021/03/01 03:40:15;;;;;;;;;;;-3276.20;90.70;;;;;;4980191;28;20051;-82
2021/03/01 03:42:44;;;;;;;7.15;2.78;;;-3276.20;90.80;;;;;;4979151;28;20352;-81
2021/03/01 03:45:13;;;;;;;2.28;1.10;;;-3276.20;90.70;;;;;;4959011;28;20047;-81
2021/03/01 03:47:43;;;;;;;4.88;1.15;;;-3276.20;90.90;;;;;;4957944;28;20054;-83
2021/03/01 03:50:12;;;;;;;2.67;1.23;;;-3276.20;91.10;;;;;;4971844;28;20055;-81
2021/03/01 03:52:42;;;;;;;5.32;2.03;;;-3276.20;90.80;;;;;;4942170;28;20085;-80
2021/03/01 03:55:17;;;;;;;2.45;1.90;;;-3276.20;90.50;;;;;;4942095;28;20055;-82
2021/03/01 03:57:49;;;;;;;6.40;1.63;;;-3276.10;90.90;;;;;;4974655;28;20185;-81
2021/03/01 04:00:18;;;;;;;3.33;1.90;;;-3276.20;91.00;;;;;;4955812;28;20387;-81
2021/03/01 04:02:46;;;;;;;3.15;1.20;;;-3276.10;90.80;;;;;;4962048;28;20078;-82
2021/03/01 04:05:15;;;;;;;6.47;2.50;;;-3276.10;91.10;;;;;;4957045;28;20061;-82
2021/03/01 04:07:45;;;;;;;4.10;2.25;;;-3276.10;91.20;;;;;;4982014;28;20357;-80
2021/03/01 04:10:15;;;;;;;7.07;2.13;;;-3276.00;91.40;;;;;;4971825;28;20045;-81
2021/03/01 04:12:45;;;;;;;5.30;1.65;;;-3276.00;91.50;;;;;;4961442;28;20093;-81
2021/03/01 04:15:15;;;;;;;3.30;1.70;;;-3276.00;91.70;;;;;;4962025;28;20092;-82
2021/03/01 04:17:47;;;;;;;7.10;3.10;;;-3276.00;91.90;;;;;;4985502;28;20350;-82
2021/03/01 04:20:18;;;;;;;6.85;1.98;;;-3276.10;91.80;;;;;;5009734;28;20061;-82
2021/03/01 04:22:46;;;;;;;5.40;2.08;;;-3276.20;91.90;;;;;;4974040;28;20257;-82
2021/03/01 04:25:15;;;;;;;3.97;2.53;;;-3276.10;91.70;;;;;;4968522;28;20056;-83
2021/03/01 04:27:42;;;;;;;3.88;1.90;;;-3276.20;91.80;;;;;;5040418;28;20055;-83
2021/03/01 04:30:12;;;;;;;2.40;1.48;;;-3276.10;91.80;;;;;;4959103;28;20058;-83
2021/03/01 04:32:42;;;;;;;3.17;1.50;;;-3276.10;91.80;;;;;;4949261;28;20115;-84
2021/03/01 04:35:13;;;;;;;4.35;1.83;;;-3276.20;91.80;;;;;;4957837;28;20101;-80
2021/03/01 04:37:40;;;;;;;4.40;1.65;;;-3276.20;91.60;;;;;;4942259;28;20060;-83
2021/03/01 04:40:09;;;;;;;3.97;1.48;;;-3276.30;91.50;;;;;;4951193;28;20278;-80
2021/03/01 04:42:37;;;;;;;5.53;1.80;;;-3276.30;91.20;;;;;;4957967;28;20081;-80
2021/03/01 04:45:11;;;;;;;2.08;1.17;;;-3276.40;90.90;;;;;;4941424;28;20047;-83
2021/03/01 04:47:42;;;;;;;6.07;2.63;;;-3276.40;90.80;;;;;;4965263;28;20059;-81
2021/03/01 04:50:12;;;;;;;;;;;-3276.30;90.80;;;;;;4957209;28;20058;-79
2021/03/01 04:52:41;;;;;;;2.92;1.17;;;-3276.30;91.20;;;;;;4984828;28;19940;-82
2021/03/01 04:55:08;;;;;;;3.60;1.30;;;-3276.20;91.50;;;;;;4977118;28;20059;-80
2021/03/01 04:57:37;;;;;;;2.55;1.35;;;-3276.10;91.30;;;;;;4987357;28;20127;-81
2021/03/01 05:00:12;;;;;;;3.47;1.40;;;-3276.00;91.20;;;;;;4962361;28;20053;-80
2021/03/01 05:02:40;;;;;;;3.70;1.15;;;-3276.00;91.40;;;;;;4962707;28;20043;-82
2021/03/01 05:05:09;;;;;;;3.67;1.67;;;-3275.90;91.50;;;;;;4963301;28;20179;-82
2021/03/01 05:07:38;;;;;;;3.38;1.55;;;-3275.90;91.50;;;;;;4946576;28;20066;-81
2021/03/01 05:10:07;;;;;;;4.30;1.83;;;-3276.00;91.50;;;;;;4962350;28;20080;-81
2021/03/01 05:12:34;;;;;;;4.35;1.27;;;-3275.90;91.50;;;;;;4978501;28;20067;-82
2021/03/01 05:15:01;;;;;;;6.40;1.95;;;-3275.90;91.60;;;;;;4983865;28;20072;-82
2021/03/01 05:17:30;;;;;;;3.25;1.75;;;-3275.90;91.80;;;;;;4962182;28;20053;-80
2021/03/01 05:19:57;;;;;;;4.47;2.05;;;-3275.90;91.60;;;;;;4962949;28;20051;-82
2021/03/01 05:22:23;;;;;;;4.80;2.22;;;-3275.90;91.70;;;;;;4960695;28;20146;-80
2021/03/01 05:24:51;;;;;;;6.57;2.42;;;-3276.00;92.10;;;;;;4960155;28;20058;-80
2021/03/01 05:27:20;;;;;;;6.93;3.35;;;-3276.00;92.30;;;;;;5017056;28;20067;-81
2021/03/01 05:29:46;;;;;;;10.15;2.85;;;-3276.00;92.80;;;;;;4945108;28;20100;-83
2021/03/01 05:32:13;;;;;;;9.35;3.17;;;-3276.00;92.60;;;;;;4960878;28;21136;-81
2021/03/01 05:34:40;;;;;;;5.57;2.35;;;-3276.00;92.60;;;;;;4945080;28;20047;-86
2021/03/01 05:37:07;;;;;;;3.97;1.95;;;-3276.00;92.40;;;;;;4961375;28;20062;-80
2021/03/01 05:39:34;;;;;;;5.97;3.03;;;-3276.00;92.50;;;;;;4963137;28;20085;-81
2021/03/01 05:42:03;;;;;;;6.07;2.75;;;-3275.90;92.40;;;;;;4962625;28;20230;-82
2021/03/01 05:44:30;;;;;;;10.07;3.60;;;-3275.90;92.30;;;;;;4961072;28;20059;-80
2021/03/01 05:46:59;;;;;;;8.43;3.92;;;-3275.90;92.70;;;;;;4961987;28;20112;-80
2021/03/01 05:49:27;;;;;;;10.45;3.28;;;-3275.90;92.90;;;;;;4962094;28;20334;-85
2021/03/01 05:51:58;;;;;;;4.75;3.28;;;-3275.90;93.00;;;;;;4960963;28;20062;-83
2021/03/01 05:54:28;;;;;;;5.70;2.60;;;-3275.90;93.20;;;;;;4962333;28;20154;-85
2021/03/01 05:56:55;;;;;;;7.83;3.80;;;-3276.00;93.40;;;;;;4961691;28;20047;-82
2021/03/01 05:59:29;;;;;;;7.90;2.58;;;-3276.00;93.40;;;;;;4965031;28;20130;-82
2021/03/01 06:01:56;;;;;;;8.00;2.60;;;-3276.00;93.50;;;;;;4980005;28;20066;-83
2021/03/01 06:04:23;;;;;;;6.30;2.97;;;-3276.10;93.90;;;;;;5017144;28;20075;-83
2021/03/01 06:06:51;;;;;;;10.13;3.53;;;-3276.20;94.10;;;;;;4966194;28;20066;-80
2021/03/01 06:09:20;;;;;;;7.20;2.92;;;-3276.20;93.80;;;;;;4979290;28;20989;-80
2021/03/01 06:11:48;;;;;;;6.53;3.00;;;-3276.30;94.00;;;;;;4951402;28;20051;-82
2021/03/01 06:14:15;;;;;;;8.43;3.70;;;-3276.30;94.00;;;;;;4953309;28;20126;-82
2021/03/01 06:17:11;;;;;;;7.70;3.35;;;-3276.40;94.00;;;;;;4968208;28;20039;-82
2021/03/01 06:19:50;;;;;;;7.68;2.53;;;-3276.50;94.00;;;;;;4984804;28;20047;-82
2021/03/01 06:22:17;;;;;;;11.05;4.95;;;-3276.70;93.90;;;;;;4946392;28;20047;-83
2021/03/01 06:25:03;;;;;;;8.23;3.83;;;0.00;93.90;;;;;;4965147;29;20110;-83
2021/03/01 06:27:52;;;;;;;8.27;3.58;;;0.00;93.80;;;;;;4947791;28;20338;-80
2021/03/01 06:30:22;;;;;;;13.38;4.22;;;0.00;93.70;;;;;;4947830;28;20238;-82
2021/03/01 06:33:08;;;;;;;6.25;2.90;;;0.10;93.50;;;;;;4001419;28;10001991;-82
2021/03/01 06:35:37;;;;;;;7.28;2.80;;;0.10;93.50;;;;;;2053253;28;10001910;-83
2021/03/01 06:38:19;;;;;;;8.95;3.63;;;0.10;93.40;;;;;;4964076;28;20065;-83
2021/03/01 06:41:10;;;;;;;8.73;3.20;;;0.10;93.30;;;;;;4986204;28;20055;-83
2021/03/01 06:43:37;;;;;;;8.02;3.85;;;0.20;93.20;;;;;;4956433;28;20055;-81
2021/03/01 06:46:12;;;;;;;9.82;2.85;;;0.20;93.10;;;;;;4965224;28;20058;-82
2021/03/01 06:48:41;;;;;;;8.98;3.75;;;0.20;93.10;;;;;;4965622;28;20263;-83
2021/03/01 06:51:09;;;;;;;5.75;2.72;;;0.20;93.10;;;;;;4965133;28;20082;-82
2021/03/01 06:53:37;;;;;;;7.18;2.78;;;0.30;93.10;;;;;;4988519;28;20093;-81
2021/03/01 06:56:05;;;;;;;8.98;3.80;;;0.30;93.10;;;;;;4965428;28;20346;-83
2021/03/01 06:58:36;;;;;;;8.85;3.95;;;0.40;93.10;;;;;;4965809;28;20055;-82
2021/03/01 07:01:05;;;;;;;;;;;0.50;93.00;;;;;;4965205;28;20062;-84
2021/03/01 07:03:32;;;;;;;7.47;3.67;;;0.50;92.90;;;;;;4950039;28;19930;-83
2021/03/01 07:06:03;;;;;;;10.25;3.83;;;0.60;92.80;;;;;;4964982;28;20274;-82
2021/03/01 07:08:41;;;;;;;8.32;3.72;;;0.60;92.60;;;;;;4984699;28;20135;-83
2021/03/01 07:11:26;;;;;;;7.15;2.85;;;0.70;92.60;;;;;;4987525;28;20051;-82
2021/03/01 07:13:55;;;;;;;8.95;4.45;;;0.70;92.40;;;;;;4979034;28;20055;-84
2021/03/01 07:16:22;;;;;;;6.90;3.13;;;0.80;92.20;;;;;;4964438;28;20055;-82
2021/03/01 07:18:51;;;;;;;5.93;2.67;;;0.90;92.20;;;;;;4965099;28;20059;-83
2021/03/01 07:21:25;;;;;;;8.80;4.53;;;1.00;92.00;;;;;;4941825;28;20059;-82
2021/03/01 07:23:57;;;;;;;8.43;3.22;;;1.00;91.90;;;;;;4962856;28;20059;-84
2021/03/01 07:26:26;;;;;;;9.07;3.55;;;1.10;91.70;;;;;;5013037;28;20078;-84
2021/03/01 07:28:58;;;;;;;8.55;3.55;;;1.20;91.50;;;;;;4961690;28;20043;-84
2021/03/01 07:31:27;;;;;;;8.02;2.83;;;1.30;91.20;;;;;;4958995;28;20114;-82
2021/03/01 07:33:56;;;;;;;6.82;3.17;;;1.50;91.00;;;;;;4973834;28;20085;-81
2021/03/01 07:36:33;;;;;;;5.22;2.85;;;1.50;90.80;;;;;;4965049;28;20070;-82
2021/03/01 07:39:04;;;;;;;8.57;3.88;;;1.60;90.40;;;;;;4965064;28;20122;-82
2021/03/01 07:41:32;;;;;;;8.95;3.97;;;1.60;90.30;;;;;;4962651;28;20223;-84
2021/03/01 07:44:00;;;;;;;7.28;4.10;;;1.60;90.30;;;;;;4964905;28;20055;-81
2021/03/01 07:46:29;;;;;;;7.20;3.47;;;1.70;90.40;;;;;;4964338;28;20047;-84
2021/03/01 07:48:57;;;;;;;8.70;3.83;;;1.60;90.20;;;;;;4950775;28;20055;-83
2021/03/01 07:51:53;;;;;;;7.63;4.32;;;1.70;90.10;;;;;;5046257;28;20067;-83
2021/03/01 07:54:40;;;;;;;6.32;3.55;;;1.70;90.00;;;;;;4973516;28;20074;-83
2021/03/01 07:57:08;;;;;;;13.98;4.82;;;1.80;90.00;;;;;;4961512;28;20346;-82
2021/03/01 07:59:36;;;;;;;8.02;3.67;;;1.90;89.80;;;;;;4960982;28;20358;-82
2021/03/01 08:02:22;;;;;;;8.10;3.47;;;1.90;89.40;;;;;;4945800;28;20045;-83
2021/03/01 08:04:50;;;;;;;8.90;3.58;;;2.00;89.30;;;;;;4974220;28;20413;-81
2021/03/01 08:07:18;;;;;;;10.77;4.13;;;2.00;89.20;;;;;;4960303;28;20079;-81
2021/03/01 08:09:47;;;;;;;10.18;3.45;;;2.10;89.00;;;;;;4971014;28;20061;-81
2021/03/01 08:12:54;;;;;;;7.00;3.83;;;2.10;88.70;;;;;;4957415;28;20115;-83
2021/03/01 08:15:30;;;;;;;8.00;3.83;;;2.10;88.70;;;;;;4957266;28;20546;-83
2021/03/01 08:17:58;;;;;;;10.07;4.68;;;2.20;88.80;;;;;;4956700;28;20047;-81
2021/03/01 08:20:32;;;;;;;7.00;3.42;;;2.30;89.10;;;;;;4939623;28;20059;-82
2021/03/01 08:23:33;;;;;;;10.75;4.15;;;2.50;87.90;;;;;;5037647;28;20071;-79
2021/03/01 08:26:02;;;;;;;10.00;4.45;;;2.50;87.80;;;;;;4978658;28;20281;-80
2021/03/01 08:28:49;;;;;;;8.70;3.80;;;2.50;87.60;;;;;;4975959;28;20058;-82
2021/03/01 08:31:25;;;;;;;7.15;3.33;;;2.50;87.60;;;;;;4971316;28;20114;-82
2021/03/01 08:33:52;;;;;;;7.78;3.30;;;2.50;87.50;;;;;;4941086;28;20063;-82
2021/03/01 08:36:25;;;;;;;11.63;5.35;;;2.60;87.50;;;;;;4956199;28;20059;-81
2021/03/01 08:38:54;;;;;;;8.27;3.13;;;2.60;87.40;;;;;;4952629;28;20051;-82
2021/03/01 08:41:41;;;;;;;9.98;3.95;;;2.60;87.30;;;;;;4956048;28;20051;-82
2021/03/01 08:44:22;;;;;;;9.10;3.50;;;2.80;87.10;;;;;;4961669;28;20083;-82
2021/03/01 08:46:50;;;;;;;;;;;2.80;86.80;;;;;;4957940;28;20051;-82
2021/03/01 08:49:24;;;;;;;7.05;3.45;;;2.90;86.60;;;;;;4972912;28;19918;-81
2021/03/01 08:51:51;;;;;;;8.63;4.28;;;3.00;86.30;;;;;;4956006;28;20366;-82
2021/03/01 08:54:32;;;;;;;7.38;3.13;;;3.10;86.40;;;;;;4938702;28;20069;-80
2021/03/01 08:57:04;;;;;;;6.80;4.07;;;3.20;86.20;;;;;;4983659;28;20051;-83
2021/03/01 08:59:31;;;;;;;8.60;4.22;;;3.30;85.70;;;;;;4971071;28;20059;-82
2021/03/01 09:01:58;;;;;;;8.10;3.72;;;3.30;85.10;;;;;;4954761;28;20334;-83
2021/03/01 09:04:25;;;;;;;7.72;4.03;;;3.40;85.40;;;;;;4954965;28;20152;-81
2021/03/01 09:06:52;;;;;;;7.75;3.78;;;3.60;85.00;;;;;;4956420;28;20058;-80
2021/03/01 09:09:19;;;;;;;9.68;3.63;;;3.70;84.80;;;;;;4976420;28;20055;-81
2021/03/01 09:11:51;;;;;;;10.98;3.97;;;3.80;84.00;;;;;;4972416;28;20043;-81
2021/03/01 09:14:18;;;;;;;8.95;4.22;;;3.90;83.90;;;;;;4955428;28;20044;-82
2021/03/01 09:16:45;;;;;;;7.50;3.47;;;4.10;83.20;;;;;;4959227;28;20066;-82
2021/03/01 09:19:13;;;;;;;8.25;3.72;;;4.10;82.60;;;;;;4954336;28;20062;-81
2021/03/01 09:21:44;;;;;;;8.40;3.65;;;4.30;82.10;;;;;;4960562;28;20065;-81
2021/03/01 09:24:12;;;;;;;6.90;2.67;;;4.50;81.40;;;;;;4960819;28;20035;-80
2021/03/01 09:26:43;;;;;;;9.13;3.88;;;4.90;80.70;;;;;;4955849;28;20054;-81
2021/03/01 09:29:12;;;;;;;6.50;3.03;;;5.30;78.50;;;;;;4955400;28;20047;-81
2021/03/01 09:31:40;;;;;;;7.25;3.33;;;5.60;77.70;;;;;;4955730;28;20055;-82
2021/03/01 09:34:08;;;;;;;8.23;4.00;;;5.90;76.20;;;;;;4964655;28;20270;-80
2021/03/01 09:36:36;;;;;;;8.77;3.65;;;6.20;74.40;;;;;;4954080;28;20126;-80
2021/03/01 09:39:06;;;;;;;8.23;3.55;;;6.70;73.00;;;;;;4978825;28;20387;-82
2021/03/01 09:41:37;;;;;;;7.47;2.97;;;7.20;70.60;;;;;;4954803;28;20059;-80
2021/03/01 09:44:05;;;;;;;6.82;3.55;;;7.80;68.50;;;;;;4952919;28;20097;-80
2021/03/01 09:46:33;;;;;;;8.45;3.35;;;8.50;65.90;;;;;;5036850;28;20130;-84
2021/03/01 09:49:03;;;;;;;7.28;3.40;;;9.20;63.40;;;;;;4952552;28;20067;-80
2021/03/01 09:51:31;;;;;;;8.00;3.63;;;9.70;60.60;;;;;;4970233;28;20055;-81
2021/03/01 09:54:00;;;;;;;6.70;3.00;;;10.20;58.90;;;;;;4951967;28;20051;-81
2021/03/01 09:56:40;;;;;;;5.93;3.05;;;10.60;56.50;;;;;;4953224;28;20067;-81
2021/03/01 09:59:07;;;;;;;6.15;2.90;;;11.00;54.90;;;;;;4953561;28;20047;-81
2021/03/01 10:01:39;;;;;;;6.82;3.03;;;11.50;53.20;;;;;;4937119;28;20055;-81
2021/03/01 10:04:06;;;;;;;7.22;2.70;;;12.00;51.00;;;;;;4953699;28;20113;-83
2021/03/01 10:06:35;;;;;;;9.73;3.75;;;12.60;50.30;;;;;;4956180;28;20061;-82
2021/03/01 10:09:08;;;;;;;7.78;3.42;;;13.00;47.70;;;;;;4954069;28;20043;-82
2021/03/01 10:11:35;;;;;;;8.55;2.97;;;13.10;48.10;;;;;;4969407;28;20043;-80
2021/03/01 10:14:05;;;;;;;6.50;3.28;;;13.30;46.60;;;;;;4952826;28;20055;-83
2021/03/01 10:16:34;;;;;;;7.53;3.70;;;13.50;46.60;;;;;;4970515;28;20106;-82
2021/03/01 10:19:14;;;;;;;8.27;3.38;;;14.20;45.00;;;;;;4955190;28;20358;-80
2021/03/01 10:21:42;;;;;;;6.30;2.83;;;14.40;43.70;;;;;;4955694;28;20062;-81
2021/03/01 10:24:11;;;;;;;9.18;3.53;;;14.70;42.90;;;;;;4988596;28;20063;-82
2021/03/01 10:26:52;;;;;;;11.52;4.10;;;14.40;43.10;;;;;;5003449;28;20054;-81
2021/03/01 10:29:29;;;;;;;6.88;2.75;;;14.50;43.00;;;;;;4939172;28;20153;-80
2021/03/01 10:31:55;;;;;;;7.78;2.90;;;14.60;42.40;;;;;;4954010;28;20069;-81
2021/03/01 10:34:29;;;;;;;5.82;3.35;;;14.40;43.00;;;;;;4955962;28;20232;-81
2021/03/01 10:36:58;;;;;;;8.05;3.20;;;14.70;42.50;;;;;;4954006;28;20361;-82
2021/03/01 10:39:26;;;;;;;5.32;2.88;;;15.20;41.90;;;;;;4971169;28;20051;-81
2021/03/01 10:41:55;;;;;;;6.55;3.47;;;15.90;40.40;;;;;;4955504;28;20350;-82
2021/03/01 10:44:31;;;;;;;6.35;3.05;;;16.20;39.70;;;;;;4956455;28;20055;-83
2021/03/01 10:47:10;;;;;;;7.05;3.50;;;16.20;39.70;;;;;;4974373;28;20040;-83
2021/03/01 10:49:40;;;;;;;6.87;3.07;;;16.70;38.70;;;;;;4958561;28;20080;-81
2021/03/01 10:52:08;;;;;;;5.88;3.00;;;17.00;37.10;;;;;;4955879;28;20398;-84
2021/03/01 10:54:36;;;;;;;5.72;2.85;;;17.10;37.20;;;;;;4941277;28;20058;-82
2021/03/01 10:57:05;;;;;;;5.57;2.72;;;16.90;37.30;;;;;;4957735;28;20047;-83
2021/03/01 10:59:33;;;;;;;11.07;3.65;;;17.00;37.20;;;;;;4992585;28;20043;-81
2021/03/01 11:02:01;;;;;;;6.35;3.63;;;17.20;36.90;;;;;;4959796;28;20055;-83
2021/03/01 11:04:29;;;;;;;9.98;4.22;;;17.40;36.70;;;;;;4956360;28;20242;-83
2021/03/01 11:06:57;;;;;;;5.97;2.88;;;17.70;35.70;;;;;;4957571;28;20055;-81
2021/03/01 11:09:25;;;;;;;7.20;3.20;;;17.70;35.80;;;;;;4953749;28;20359;-82
2021/03/01 11:11:54;;;;;;;6.13;2.58;;;17.40;36.50;;;;;;4956707;28;20047;-82
2021/03/01 11:14:22;;;;;;;12.27;3.42;;;17.60;36.30;;;;;;4962732;28;20055;-83
2021/03/01 11:16:49;;;;;;;4.53;2.75;;;17.70;35.90;;;;;;4971138;28;20063;-82
2021/03/01 11:19:16;;;;;;;8.70;3.28;;;17.90;36.20;;;;;;4974368;28;20064;-82
2021/03/01 11:21:43;;;;;;;6.20;3.00;;;18.20;35.60;;;;;;4992159;28;20047;-81
2021/03/01 11:24:12;;;;;;;8.70;2.95;;;18.60;34.70;;;;;;4956729;28;20431;-82
2021/03/01 11:26:40;;;;;;;5.65;3.10;;;18.80;34.60;;;;;;4969779;28;20085;-81
2021/03/01 11:29:07;;;;;;;7.85;3.15;;;18.70;34.10;;;;;;4973782;28;20055;-81
2021/03/01 11:31:34;;;;;;;7.57;3.40;;;19.10;33.90;;;;;;4970323;28;20079;-80
2021/03/01 11:34:02;;;;;;;5.78;2.75;;;19.40;33.70;;;;;;4952882;28;20499;-81
2021/03/01 11:36:29;;;;;;;6.13;2.85;;;19.70;33.30;;;;;;4956446;28;20468;-80
2021/03/01 11:38:56;;;;;;;7.85;3.33;;;19.70;33.30;;;;;;4952990;28;20319;-80
2021/03/01 11:41:24;;;;;;;5.82;2.90;;;20.30;31.90;;;;;;4953042;28;20066;-81
2021/03/01 11:43:52;;;;;;;8.27;3.05;;;20.10;32.30;;;;;;4974900;28;20059;-80
2021/03/01 11:46:19;;;;;;;5.70;2.85;;;20.70;31.30;;;;;;4968348;28;20106;-80
2021/03/01 11:48:47;;;;;;;8.77;3.22;;;20.60;31.00;;;;;;4955209;28;20059;-80
2021/03/01 11:51:14;;;;;;;9.60;3.63;;;20.70;30.80;;;;;;4956690;28;20130;-80
2021/03/01 11:53:43;;;;;;;8.57;3.03;;;21.20;30.40;;;;;;4955899;28;20052;-79
2021/03/01 11:56:11;;;;;;;6.80;2.90;;;21.50;30.00;;;;;;4956929;28;20284;-81
2021/03/01 11:58:39;;;;;;;5.80;2.88;;;21.70;29.80;;;;;;4956049;28;20393;-81
2021/03/01 12:01:07;;;;;;;6.05;3.22;;;22.40;28.90;;;;;;4970330;28;20055;-82
2021/03/01 12:03:35;;;;;;;5.78;2.83;;;22.50;29.00;;;;;;4978631;28;20096;-81
2021/03/01 12:06:03;;;;;;;5.70;2.80;;;22.90;27.90;;;;;;4958568;28;20059;-81
2021/03/01 12:08:31;;;;;;;7.00;3.25;;;22.90;27.80;;;;;;4954136;28;20054;-83
2021/03/01 12:11:03;;;;;;;5.82;2.80;;;22.90;27.70;;;;;;4960561;28;20093;-82
2021/03/01 12:13:38;;;;;;;6.47;2.70;;;22.90;27.80;;;;;;4976712;28;20039;-81
2021/03/01 12:16:08;;;;;;;6.35;2.95;;;22.80;27.90;;;;;;4965137;28;20484;-81
2021/03/01 12:18:37;;;;;;;6.75;3.05;;;22.80;28.10;;;;;;4960113;28;20059;-81
2021/03/01 12:21:04;;;;;;;5.13;3.03;;;22.30;28.50;;;;;;4957912;28;20051;-81
2021/03/01 12:23:31;;;;;;;8.18;3.55;;;22.60;28.30;;;;;;4963782;28;20049;-81
2021/03/01 12:25:59;;;;;;;6.15;2.78;;;22.70;27.80;;;;;;4983920;28;20051;-82
2021/03/01 12:28:30;;;;;;;5.30;2.65;;;22.60;28.40;;;;;;4959065;28;20114;-84
2021/03/01 12:30:57;;;;;;;7.57;2.95;;;22.60;28.20;;;;;;4973904;28;20055;-83
2021/03/01 12:33:26;;;;;;;5.25;2.78;;;22.80;28.10;;;;;;4981106;28;20069;-84
2021/03/01 12:35:53;;;;;;;4.70;2.30;;;23.30;27.60;;;;;;4976372;28;20055;-82
2021/03/01 12:38:20;;;;;;;6.57;2.92;;;23.40;27.10;;;;;;4980137;28;20063;-83
2021/03/01 12:40:47;;;;;;;6.05;2.88;;;23.40;27.00;;;;;;4959605;28;20433;-83
2021/03/01 12:43:14;;;;;;;5.43;2.72;;;23.40;27.00;;;;;;4963552;28;20118;-81
2021/03/01 12:45:43;;;;;;;6.07;2.70;;;22.90;27.60;;;;;;4964982;28;20363;-81
2021/03/01 12:48:16;;;;;;;7.22;3.00;;;23.10;27.80;;;;;;4961083;28;20051;-82
2021/03/01 12:50:46;;;;;;;6.88;2.88;;;23.30;27.20;;;;;;4986330;28;20047;-83
2021/03/01 12:53:13;;;;;;;5.57;2.47;;;23.30;27.60;;;;;;5049536;28;20406;-83